sensor_id;sensor_type;location;lat;lon;timestamp;P1;durP1;ratioP1;P2;durP2;ratioP2
85757;SDS011;76202;52.626;4.746;2024-02-26T00:01:22;5.47;;;1.80;;
85757;SDS011;76202;52.626;4.746;2024-02-26T00:03:48;5.13;;;1.70;;
85757;SDS011;76202;52.626;4.746;2024-02-26T00:06:13;7.82;;;2.08;;
85757;SDS011;76202;52.626;4.746;2024-02-26T00:08:39;6.63;;;1.90;;
85757;SDS011;76202;52.626;4.746;2024-02-26T00:11:04;5.80;;;1.80;;
85757;SDS011;76202;52.626;4.746;2024-02-26T00:13:29;4.88;;;1.75;;
85757;SDS011;76202;52.626;4.746;2024-02-26T00:15:55;5.53;;;1.90;;
85757;SDS011;76202;52.626;4.746;2024-02-26T00:18:20;6.72;;;2.08;;
85757;SDS011;76202;52.626;4.746;2024-02-26T00:20:45;6.25;;;1.70;;
85757;SDS011;76202;52.626;4.746;2024-02-26T00:23:11;6.75;;;1.70;;
85757;SDS011;76202;52.626;4.746;2024-02-26T00:25:36;7.18;;;1.75;;
85757;SDS011;76202;52.626;4.746;2024-02-26T00:28:03;5.63;;;1.70;;
85757;SDS011;76202;52.626;4.746;2024-02-26T00:30:29;5.85;;;1.63;;
85757;SDS011;76202;52.626;4.746;2024-02-26T00:32:55;5.25;;;1.65;;
85757;SDS011;76202;52.626;4.746;2024-02-26T00:35:20;5.60;;;1.80;;
85757;SDS011;76202;52.626;4.746;2024-02-26T00:37:45;5.45;;;1.70;;
85757;SDS011;76202;52.626;4.746;2024-02-26T00:40:11;7.15;;;1.60;;
85757;SDS011;76202;52.626;4.746;2024-02-26T00:42:36;7.05;;;2.10;;
85757;SDS011;76202;52.626;4.746;2024-02-26T00:45:02;6.13;;;1.70;;
85757;SDS011;76202;52.626;4.746;2024-02-26T00:47:28;6.03;;;2.00;;
85757;SDS011;76202;52.626;4.746;2024-02-26T00:49:53;5.55;;;1.70;;
85757;SDS011;76202;52.626;4.746;2024-02-26T00:52:19;7.70;;;1.63;;
85757;SDS011;76202;52.626;4.746;2024-02-26T00:54:44;5.97;;;1.80;;
85757;SDS011;76202;52.626;4.746;2024-02-26T00:57:09;5.60;;;1.63;;
85757;SDS011;76202;52.626;4.746;2024-02-26T00:59:35;3.85;;;1.45;;
85757;SDS011;76202;52.626;4.746;2024-02-26T01:02:00;5.63;;;1.90;;
85757;SDS011;76202;52.626;4.746;2024-02-26T01:04:27;5.25;;;1.63;;
85757;SDS011;76202;52.626;4.746;2024-02-26T01:06:52;5.45;;;1.65;;
85757;SDS011;76202;52.626;4.746;2024-02-26T01:09:18;7.25;;;1.75;;
85757;SDS011;76202;52.626;4.746;2024-02-26T01:11:43;5.38;;;1.70;;
85757;SDS011;76202;52.626;4.746;2024-02-26T01:14:09;5.70;;;1.70;;
85757;SDS011;76202;52.626;4.746;2024-02-26T01:16:34;4.78;;;1.67;;
85757;SDS011;76202;52.626;4.746;2024-02-26T01:19:00;5.63;;;1.88;;
85757;SDS011;76202;52.626;4.746;2024-02-26T01:21:25;5.75;;;1.80;;
85757;SDS011;76202;52.626;4.746;2024-02-26T01:23:54;5.55;;;1.70;;
85757;SDS011;76202;52.626;4.746;2024-02-26T01:26:19;5.47;;;1.65;;
85757;SDS011;76202;52.626;4.746;2024-02-26T01:28:45;5.90;;;1.88;;
85757;SDS011;76202;52.626;4.746;2024-02-26T01:31:10;6.22;;;1.80;;
85757;SDS011;76202;52.626;4.746;2024-02-26T01:33:35;6.22;;;1.85;;
85757;SDS011;76202;52.626;4.746;2024-02-26T01:36:01;6.25;;;1.60;;
85757;SDS011;76202;52.626;4.746;2024-02-26T01:38:26;5.22;;;1.48;;
85757;SDS011;76202;52.626;4.746;2024-02-26T01:40:52;4.25;;;1.40;;
85757;SDS011;76202;52.626;4.746;2024-02-26T01:43:18;5.85;;;1.70;;
85757;SDS011;76202;52.626;4.746;2024-02-26T01:45:43;5.45;;;1.52;;
85757;SDS011;76202;52.626;4.746;2024-02-26T01:48:08;4.43;;;1.58;;
85757;SDS011;76202;52.626;4.746;2024-02-26T01:50:35;5.07;;;1.50;;
85757;SDS011;76202;52.626;4.746;2024-02-26T01:53:03;5.10;;;1.70;;
85757;SDS011;76202;52.626;4.746;2024-02-26T01:55:28;4.55;;;1.60;;
85757;SDS011;76202;52.626;4.746;2024-02-26T01:57:54;6.13;;;1.70;;
85757;SDS011;76202;52.626;4.746;2024-02-26T02:00:20;5.88;;;1.73;;
85757;SDS011;76202;52.626;4.746;2024-02-26T02:02:47;6.65;;;1.75;;
85757;SDS011;76202;52.626;4.746;2024-02-26T02:05:16;5.75;;;1.60;;
85757;SDS011;76202;52.626;4.746;2024-02-26T02:07:42;5.93;;;1.60;;
85757;SDS011;76202;52.626;4.746;2024-02-26T02:10:08;6.28;;;1.77;;
85757;SDS011;76202;52.626;4.746;2024-02-26T02:12:34;4.38;;;1.50;;
85757;SDS011;76202;52.626;4.746;2024-02-26T02:15:01;6.28;;;1.80;;
85757;SDS011;76202;52.626;4.746;2024-02-26T02:17:27;4.72;;;1.60;;
85757;SDS011;76202;52.626;4.746;2024-02-26T02:19:53;4.43;;;1.60;;
85757;SDS011;76202;52.626;4.746;2024-02-26T02:22:19;3.10;;;1.30;;
85757;SDS011;76202;52.626;4.746;2024-02-26T02:24:44;6.25;;;1.80;;
85757;SDS011;76202;52.626;4.746;2024-02-26T02:27:10;5.10;;;1.60;;
85757;SDS011;76202;52.626;4.746;2024-02-26T02:29:36;4.93;;;1.58;;
85757;SDS011;76202;52.626;4.746;2024-02-26T02:32:02;6.35;;;1.80;;
85757;SDS011;76202;52.626;4.746;2024-02-26T02:34:28;5.78;;;1.60;;
85757;SDS011;76202;52.626;4.746;2024-02-26T02:36:54;6.03;;;1.75;;
85757;SDS011;76202;52.626;4.746;2024-02-26T02:39:20;4.22;;;1.58;;
85757;SDS011;76202;52.626;4.746;2024-02-26T02:41:46;6.32;;;1.63;;
85757;SDS011;76202;52.626;4.746;2024-02-26T02:44:11;4.78;;;1.58;;
85757;SDS011;76202;52.626;4.746;2024-02-26T02:46:37;6.05;;;1.77;;
85757;SDS011;76202;52.626;4.746;2024-02-26T02:49:02;4.38;;;1.60;;
85757;SDS011;76202;52.626;4.746;2024-02-26T02:51:27;5.47;;;1.55;;
85757;SDS011;76202;52.626;4.746;2024-02-26T02:53:53;5.40;;;1.70;;
85757;SDS011;76202;52.626;4.746;2024-02-26T02:56:18;5.20;;;1.55;;
85757;SDS011;76202;52.626;4.746;2024-02-26T02:58:44;4.22;;;1.48;;
85757;SDS011;76202;52.626;4.746;2024-02-26T03:01:09;5.70;;;1.70;;
85757;SDS011;76202;52.626;4.746;2024-02-26T03:03:34;4.78;;;1.50;;
85757;SDS011;76202;52.626;4.746;2024-02-26T03:06:01;4.45;;;1.50;;
85757;SDS011;76202;52.626;4.746;2024-02-26T03:08:27;4.93;;;1.65;;
85757;SDS011;76202;52.626;4.746;2024-02-26T03:10:52;6.00;;;1.67;;
85757;SDS011;76202;52.626;4.746;2024-02-26T03:13:18;6.10;;;1.55;;
85757;SDS011;76202;52.626;4.746;2024-02-26T03:15:43;5.68;;;1.60;;
85757;SDS011;76202;52.626;4.746;2024-02-26T03:18:09;5.63;;;1.48;;
85757;SDS011;76202;52.626;4.746;2024-02-26T03:20:34;5.47;;;1.55;;
85757;SDS011;76202;52.626;4.746;2024-02-26T03:22:59;5.15;;;1.50;;
85757;SDS011;76202;52.626;4.746;2024-02-26T03:25:25;5.45;;;1.50;;
85757;SDS011;76202;52.626;4.746;2024-02-26T03:27:52;5.00;;;1.50;;
85757;SDS011;76202;52.626;4.746;2024-02-26T03:30:17;4.35;;;1.50;;
85757;SDS011;76202;52.626;4.746;2024-02-26T03:32:43;6.35;;;1.50;;
85757;SDS011;76202;52.626;4.746;2024-02-26T03:35:08;7.53;;;1.73;;
85757;SDS011;76202;52.626;4.746;2024-02-26T03:37:34;5.72;;;1.50;;
85757;SDS011;76202;52.626;4.746;2024-02-26T03:39:59;4.68;;;1.45;;
85757;SDS011;76202;52.626;4.746;2024-02-26T03:42:26;2.95;;;1.33;;
85757;SDS011;76202;52.626;4.746;2024-02-26T03:44:51;5.00;;;1.50;;
85757;SDS011;76202;52.626;4.746;2024-02-26T03:47:17;4.07;;;1.35;;
85757;SDS011;76202;52.626;4.746;2024-02-26T03:49:42;5.20;;;1.60;;
85757;SDS011;76202;52.626;4.746;2024-02-26T03:52:07;5.03;;;1.50;;
85757;SDS011;76202;52.626;4.746;2024-02-26T03:54:33;4.68;;;1.40;;
85757;SDS011;76202;52.626;4.746;2024-02-26T03:56:58;3.03;;;1.33;;
85757;SDS011;76202;52.626;4.746;2024-02-26T03:59:23;4.50;;;1.42;;
85757;SDS011;76202;52.626;4.746;2024-02-26T04:01:50;4.05;;;1.30;;
85757;SDS011;76202;52.626;4.746;2024-02-26T04:04:16;3.33;;;1.23;;
85757;SDS011;76202;52.626;4.746;2024-02-26T04:06:45;4.20;;;1.30;;
85757;SDS011;76202;52.626;4.746;2024-02-26T04:09:11;4.47;;;1.50;;
85757;SDS011;76202;52.626;4.746;2024-02-26T04:11:38;4.70;;;1.30;;
85757;SDS011;76202;52.626;4.746;2024-02-26T04:14:04;2.80;;;1.30;;
85757;SDS011;76202;52.626;4.746;2024-02-26T04:16:30;6.28;;;1.50;;
85757;SDS011;76202;52.626;4.746;2024-02-26T04:18:56;4.53;;;1.30;;
85757;SDS011;76202;52.626;4.746;2024-02-26T04:21:21;4.75;;;1.50;;
85757;SDS011;76202;52.626;4.746;2024-02-26T04:23:47;3.78;;;1.30;;
85757;SDS011;76202;52.626;4.746;2024-02-26T04:26:14;5.88;;;1.55;;
85757;SDS011;76202;52.626;4.746;2024-02-26T04:28:39;4.38;;;1.45;;
85757;SDS011;76202;52.626;4.746;2024-02-26T04:31:04;3.35;;;1.30;;
85757;SDS011;76202;52.626;4.746;2024-02-26T04:33:30;3.60;;;1.40;;
85757;SDS011;76202;52.626;4.746;2024-02-26T04:35:58;3.55;;;1.30;;
85757;SDS011;76202;52.626;4.746;2024-02-26T04:38:23;4.18;;;1.30;;
85757;SDS011;76202;52.626;4.746;2024-02-26T04:40:49;2.70;;;1.20;;
85757;SDS011;76202;52.626;4.746;2024-02-26T04:43:14;4.15;;;1.27;;
85757;SDS011;76202;52.626;4.746;2024-02-26T04:45:40;3.92;;;1.40;;
85757;SDS011;76202;52.626;4.746;2024-02-26T04:48:06;3.05;;;1.30;;
85757;SDS011;76202;52.626;4.746;2024-02-26T04:50:31;4.30;;;1.30;;
85757;SDS011;76202;52.626;4.746;2024-02-26T04:52:57;3.70;;;1.30;;
85757;SDS011;76202;52.626;4.746;2024-02-26T04:55:22;4.45;;;1.30;;
85757;SDS011;76202;52.626;4.746;2024-02-26T04:57:47;3.35;;;1.20;;
85757;SDS011;76202;52.626;4.746;2024-02-26T05:00:13;4.25;;;1.30;;
85757;SDS011;76202;52.626;4.746;2024-02-26T05:02:39;4.55;;;1.40;;
85757;SDS011;76202;52.626;4.746;2024-02-26T05:05:05;3.30;;;1.30;;
85757;SDS011;76202;52.626;4.746;2024-02-26T05:07:31;2.83;;;1.08;;
85757;SDS011;76202;52.626;4.746;2024-02-26T05:09:57;3.00;;;1.23;;
85757;SDS011;76202;52.626;4.746;2024-02-26T05:12:22;2.65;;;1.10;;
85757;SDS011;76202;52.626;4.746;2024-02-26T05:14:47;3.40;;;1.27;;
85757;SDS011;76202;52.626;4.746;2024-02-26T05:17:13;2.83;;;1.20;;
85757;SDS011;76202;52.626;4.746;2024-02-26T05:19:38;3.70;;;1.40;;
85757;SDS011;76202;52.626;4.746;2024-02-26T05:22:03;1.55;;;0.95;;
85757;SDS011;76202;52.626;4.746;2024-02-26T05:24:29;2.95;;;1.10;;
85757;SDS011;76202;52.626;4.746;2024-02-26T05:26:54;4.32;;;1.20;;
85757;SDS011;76202;52.626;4.746;2024-02-26T05:29:20;2.58;;;0.98;;
85757;SDS011;76202;52.626;4.746;2024-02-26T05:31:46;3.65;;;1.30;;
85757;SDS011;76202;52.626;4.746;2024-02-26T05:34:11;4.13;;;1.20;;
85757;SDS011;76202;52.626;4.746;2024-02-26T05:36:36;3.42;;;1.17;;
85757;SDS011;76202;52.626;4.746;2024-02-26T05:39:02;2.45;;;1.10;;
85757;SDS011;76202;52.626;4.746;2024-02-26T05:41:28;3.55;;;1.15;;
85757;SDS011;76202;52.626;4.746;2024-02-26T05:43:55;2.45;;;1.10;;
85757;SDS011;76202;52.626;4.746;2024-02-26T05:46:21;3.83;;;1.17;;
85757;SDS011;76202;52.626;4.746;2024-02-26T05:48:47;3.60;;;1.20;;
85757;SDS011;76202;52.626;4.746;2024-02-26T05:51:14;2.60;;;1.15;;
85757;SDS011;76202;52.626;4.746;2024-02-26T05:53:40;2.28;;;1.00;;
85757;SDS011;76202;52.626;4.746;2024-02-26T05:56:06;2.55;;;1.10;;
85757;SDS011;76202;52.626;4.746;2024-02-26T05:58:31;3.58;;;1.10;;
85757;SDS011;76202;52.626;4.746;2024-02-26T06:00:56;3.05;;;1.00;;
85757;SDS011;76202;52.626;4.746;2024-02-26T06:03:22;1.80;;;0.93;;
85757;SDS011;76202;52.626;4.746;2024-02-26T06:05:47;2.67;;;1.00;;
85757;SDS011;76202;52.626;4.746;2024-02-26T06:08:12;2.42;;;0.95;;
85757;SDS011;76202;52.626;4.746;2024-02-26T06:10:38;3.28;;;1.00;;
85757;SDS011;76202;52.626;4.746;2024-02-26T06:13:04;1.83;;;0.85;;
85757;SDS011;76202;52.626;4.746;2024-02-26T06:15:30;2.47;;;0.90;;
85757;SDS011;76202;52.626;4.746;2024-02-26T06:17:55;1.88;;;0.70;;
85757;SDS011;76202;52.626;4.746;2024-02-26T06:20:21;2.10;;;0.82;;
85757;SDS011;76202;52.626;4.746;2024-02-26T06:22:46;2.67;;;1.00;;
85757;SDS011;76202;52.626;4.746;2024-02-26T06:25:11;2.33;;;1.00;;
85757;SDS011;76202;52.626;4.746;2024-02-26T06:27:37;1.45;;;0.85;;
85757;SDS011;76202;52.626;4.746;2024-02-26T06:30:02;1.73;;;0.88;;
85757;SDS011;76202;52.626;4.746;2024-02-26T06:32:28;1.55;;;0.90;;
85757;SDS011;76202;52.626;4.746;2024-02-26T06:34:54;4.03;;;0.90;;
85757;SDS011;76202;52.626;4.746;2024-02-26T06:37:20;1.80;;;0.80;;
85757;SDS011;76202;52.626;4.746;2024-02-26T06:39:45;2.45;;;0.90;;
85757;SDS011;76202;52.626;4.746;2024-02-26T06:42:11;1.88;;;0.70;;
85757;SDS011;76202;52.626;4.746;2024-02-26T06:44:37;4.53;;;0.88;;
85757;SDS011;76202;52.626;4.746;2024-02-26T06:47:02;1.13;;;0.80;;
85757;SDS011;76202;52.626;4.746;2024-02-26T06:49:28;3.10;;;0.93;;
85757;SDS011;76202;52.626;4.746;2024-02-26T06:51:53;2.08;;;0.90;;
85757;SDS011;76202;52.626;4.746;2024-02-26T06:54:19;3.67;;;1.20;;
85757;SDS011;76202;52.626;4.746;2024-02-26T06:56:44;2.58;;;1.05;;
85757;SDS011;76202;52.626;4.746;2024-02-26T06:59:10;4.43;;;1.08;;
85757;SDS011;76202;52.626;4.746;2024-02-26T07:01:35;3.40;;;1.00;;
85757;SDS011;76202;52.626;4.746;2024-02-26T07:04:01;2.20;;;0.68;;
85757;SDS011;76202;52.626;4.746;2024-02-26T07:06:29;6.47;;;1.00;;
85757;SDS011;76202;52.626;4.746;2024-02-26T07:08:54;3.17;;;0.95;;
85757;SDS011;76202;52.626;4.746;2024-02-26T07:11:20;1.77;;;0.80;;
85757;SDS011;76202;52.626;4.746;2024-02-26T07:13:46;4.03;;;0.88;;
85757;SDS011;76202;52.626;4.746;2024-02-26T07:16:11;2.10;;;0.90;;
85757;SDS011;76202;52.626;4.746;2024-02-26T07:18:37;1.45;;;0.70;;
85757;SDS011;76202;52.626;4.746;2024-02-26T07:21:04;4.63;;;0.75;;
85757;SDS011;76202;52.626;4.746;2024-02-26T07:23:31;2.42;;;0.80;;
85757;SDS011;76202;52.626;4.746;2024-02-26T07:25:56;3.95;;;0.80;;
85757;SDS011;76202;52.626;4.746;2024-02-26T07:28:21;2.95;;;0.88;;
85757;SDS011;76202;52.626;4.746;2024-02-26T07:30:47;2.15;;;0.90;;
85757;SDS011;76202;52.626;4.746;2024-02-26T07:33:12;1.67;;;0.82;;
85757;SDS011;76202;52.626;4.746;2024-02-26T07:35:37;3.03;;;1.00;;
85757;SDS011;76202;52.626;4.746;2024-02-26T07:38:04;1.75;;;0.50;;
85757;SDS011;76202;52.626;4.746;2024-02-26T07:40:32;4.53;;;0.95;;
85757;SDS011;76202;52.626;4.746;2024-02-26T07:42:57;1.83;;;0.85;;
85757;SDS011;76202;52.626;4.746;2024-02-26T07:45:23;1.35;;;0.73;;
85757;SDS011;76202;52.626;4.746;2024-02-26T07:47:48;2.13;;;0.90;;
85757;SDS011;76202;52.626;4.746;2024-02-26T07:50:14;1.30;;;0.63;;
85757;SDS011;76202;52.626;4.746;2024-02-26T07:52:39;4.60;;;0.70;;
85757;SDS011;76202;52.626;4.746;2024-02-26T07:55:05;2.85;;;0.70;;
85757;SDS011;76202;52.626;4.746;2024-02-26T07:57:32;1.15;;;0.60;;
85757;SDS011;76202;52.626;4.746;2024-02-26T07:59:58;2.10;;;0.80;;
85757;SDS011;76202;52.626;4.746;2024-02-26T08:02:24;1.42;;;0.55;;
85757;SDS011;76202;52.626;4.746;2024-02-26T08:04:50;0.88;;;0.70;;
85757;SDS011;76202;52.626;4.746;2024-02-26T08:07:15;1.85;;;0.65;;
85757;SDS011;76202;52.626;4.746;2024-02-26T08:09:41;0.52;;;0.52;;
85757;SDS011;76202;52.626;4.746;2024-02-26T08:12:06;1.10;;;0.60;;
85757;SDS011;76202;52.626;4.746;2024-02-26T08:14:32;0.75;;;0.50;;
85757;SDS011;76202;52.626;4.746;2024-02-26T08:16:57;3.03;;;0.70;;
85757;SDS011;76202;52.626;4.746;2024-02-26T08:19:23;1.58;;;0.73;;
85757;SDS011;76202;52.626;4.746;2024-02-26T08:21:49;1.45;;;0.70;;
85757;SDS011;76202;52.626;4.746;2024-02-26T08:24:14;5.95;;;2.17;;
85757;SDS011;76202;52.626;4.746;2024-02-26T08:26:40;0.85;;;0.63;;
85757;SDS011;76202;52.626;4.746;2024-02-26T08:29:05;1.45;;;0.60;;
85757;SDS011;76202;52.626;4.746;2024-02-26T08:31:30;3.63;;;0.80;;
85757;SDS011;76202;52.626;4.746;2024-02-26T08:33:56;0.77;;;0.40;;
85757;SDS011;76202;52.626;4.746;2024-02-26T08:36:21;2.25;;;0.63;;
85757;SDS011;76202;52.626;4.746;2024-02-26T08:38:46;2.28;;;0.70;;
85757;SDS011;76202;52.626;4.746;2024-02-26T08:41:12;0.93;;;0.60;;
85757;SDS011;76202;52.626;4.746;2024-02-26T08:43:38;2.40;;;0.80;;
85757;SDS011;76202;52.626;4.746;2024-02-26T08:46:03;1.17;;;0.47;;
85757;SDS011;76202;52.626;4.746;2024-02-26T08:48:29;1.63;;;0.68;;
85757;SDS011;76202;52.626;4.746;2024-02-26T08:50:54;3.83;;;0.68;;
85757;SDS011;76202;52.626;4.746;2024-02-26T08:53:20;0.90;;;0.70;;
85757;SDS011;76202;52.626;4.746;2024-02-26T08:55:46;2.22;;;0.60;;
85757;SDS011;76202;52.626;4.746;2024-02-26T08:58:11;1.13;;;0.50;;
85757;SDS011;76202;52.626;4.746;2024-02-26T09:00:36;1.33;;;0.60;;
85757;SDS011;76202;52.626;4.746;2024-02-26T09:03:02;3.50;;;0.80;;
85757;SDS011;76202;52.626;4.746;2024-02-26T09:05:28;1.13;;;0.50;;
85757;SDS011;76202;52.626;4.746;2024-02-26T09:07:53;1.95;;;0.50;;
85757;SDS011;76202;52.626;4.746;2024-02-26T09:10:19;1.60;;;0.60;;
85757;SDS011;76202;52.626;4.746;2024-02-26T09:12:44;1.63;;;0.57;;
85757;SDS011;76202;52.626;4.746;2024-02-26T09:15:09;1.63;;;0.63;;
85757;SDS011;76202;52.626;4.746;2024-02-26T09:17:35;1.92;;;0.70;;
85757;SDS011;76202;52.626;4.746;2024-02-26T09:20:00;1.70;;;0.60;;
85757;SDS011;76202;52.626;4.746;2024-02-26T09:22:26;0.57;;;0.45;;
85757;SDS011;76202;52.626;4.746;2024-02-26T09:24:52;2.03;;;0.50;;
85757;SDS011;76202;52.626;4.746;2024-02-26T09:27:18;1.13;;;0.40;;
85757;SDS011;76202;52.626;4.746;2024-02-26T09:29:43;2.22;;;0.73;;
85757;SDS011;76202;52.626;4.746;2024-02-26T09:32:09;1.52;;;0.60;;
85757;SDS011;76202;52.626;4.746;2024-02-26T09:34:34;1.40;;;0.63;;
85757;SDS011;76202;52.626;4.746;2024-02-26T09:37:02;1.63;;;0.47;;
85757;SDS011;76202;52.626;4.746;2024-02-26T09:39:27;1.50;;;0.50;;
85757;SDS011;76202;52.626;4.746;2024-02-26T09:41:53;2.40;;;0.60;;
85757;SDS011;76202;52.626;4.746;2024-02-26T09:44:20;2.05;;;0.80;;
85757;SDS011;76202;52.626;4.746;2024-02-26T09:46:47;1.23;;;0.60;;
85757;SDS011;76202;52.626;4.746;2024-02-26T09:49:15;0.45;;;0.43;;
85757;SDS011;76202;52.626;4.746;2024-02-26T09:51:40;0.98;;;0.55;;
85757;SDS011;76202;52.626;4.746;2024-02-26T09:54:07;1.30;;;0.52;;
85757;SDS011;76202;52.626;4.746;2024-02-26T09:56:35;0.68;;;0.47;;
85757;SDS011;76202;52.626;4.746;2024-02-26T09:59:05;1.55;;;0.60;;
85757;SDS011;76202;52.626;4.746;2024-02-26T10:01:35;1.70;;;0.70;;
85757;SDS011;76202;52.626;4.746;2024-02-26T10:04:03;1.33;;;0.70;;
85757;SDS011;76202;52.626;4.746;2024-02-26T10:06:29;1.20;;;0.50;;
85757;SDS011;76202;52.626;4.746;2024-02-26T10:08:55;1.25;;;0.57;;
85757;SDS011;76202;52.626;4.746;2024-02-26T10:11:23;2.30;;;0.60;;
85757;SDS011;76202;52.626;4.746;2024-02-26T10:13:49;0.95;;;0.57;;
85757;SDS011;76202;52.626;4.746;2024-02-26T10:16:14;1.90;;;0.60;;
85757;SDS011;76202;52.626;4.746;2024-02-26T10:18:50;2.60;;;0.65;;
85757;SDS011;76202;52.626;4.746;2024-02-26T10:21:21;0.50;;;0.50;;
85757;SDS011;76202;52.626;4.746;2024-02-26T10:23:47;2.70;;;0.50;;
85757;SDS011;76202;52.626;4.746;2024-02-26T10:26:13;1.10;;;0.57;;
85757;SDS011;76202;52.626;4.746;2024-02-26T10:28:40;0.73;;;0.73;;
85757;SDS011;76202;52.626;4.746;2024-02-26T10:31:07;1.15;;;0.60;;
85757;SDS011;76202;52.626;4.746;2024-02-26T10:33:33;1.23;;;0.50;;
85757;SDS011;76202;52.626;4.746;2024-02-26T10:36:03;1.88;;;0.50;;
85757;SDS011;76202;52.626;4.746;2024-02-26T10:38:30;0.77;;;0.52;;
85757;SDS011;76202;52.626;4.746;2024-02-26T10:40:55;1.00;;;0.47;;
85757;SDS011;76202;52.626;4.746;2024-02-26T10:43:21;1.70;;;0.90;;
85757;SDS011;76202;52.626;4.746;2024-02-26T10:45:46;2.63;;;0.60;;
85757;SDS011;76202;52.626;4.746;2024-02-26T10:48:13;2.28;;;0.57;;
85757;SDS011;76202;52.626;4.746;2024-02-26T10:50:39;4.28;;;0.68;;
85757;SDS011;76202;52.626;4.746;2024-02-26T10:53:20;3.67;;;0.57;;
85757;SDS011;76202;52.626;4.746;2024-02-26T10:55:54;2.33;;;0.60;;
85757;SDS011;76202;52.626;4.746;2024-02-26T10:58:22;2.55;;;0.68;;
85757;SDS011;76202;52.626;4.746;2024-02-26T11:00:50;5.13;;;0.73;;
85757;SDS011;76202;52.626;4.746;2024-02-26T11:03:16;1.50;;;0.63;;
85757;SDS011;76202;52.626;4.746;2024-02-26T11:05:44;2.65;;;0.70;;
85757;SDS011;76202;52.626;4.746;2024-02-26T11:08:14;1.75;;;0.60;;
85757;SDS011;76202;52.626;4.746;2024-02-26T11:10:41;1.00;;;0.43;;
85757;SDS011;76202;52.626;4.746;2024-02-26T11:13:08;1.23;;;0.50;;
85757;SDS011;76202;52.626;4.746;2024-02-26T11:15:36;0.95;;;0.50;;
85757;SDS011;76202;52.626;4.746;2024-02-26T11:18:02;3.25;;;0.68;;
85757;SDS011;76202;52.626;4.746;2024-02-26T11:20:28;1.55;;;0.60;;
85757;SDS011;76202;52.626;4.746;2024-02-26T11:22:54;2.53;;;0.63;;
85757;SDS011;76202;52.626;4.746;2024-02-26T11:25:20;2.30;;;0.85;;
85757;SDS011;76202;52.626;4.746;2024-02-26T11:27:50;0.98;;;0.60;;
85757;SDS011;76202;52.626;4.746;2024-02-26T11:30:22;3.33;;;0.70;;
85757;SDS011;76202;52.626;4.746;2024-02-26T11:32:48;3.08;;;0.63;;
85757;SDS011;76202;52.626;4.746;2024-02-26T11:35:15;2.42;;;0.57;;
85757;SDS011;76202;52.626;4.746;2024-02-26T11:37:53;1.85;;;0.55;;
85757;SDS011;76202;52.626;4.746;2024-02-26T11:40:21;2.05;;;0.60;;
85757;SDS011;76202;52.626;4.746;2024-02-26T11:42:48;3.03;;;0.70;;
85757;SDS011;76202;52.626;4.746;2024-02-26T11:48:13;1.45;;;0.57;;
85757;SDS011;76202;52.626;4.746;2024-02-26T11:50:43;2.13;;;0.60;;
85757;SDS011;76202;52.626;4.746;2024-02-26T11:53:20;1.48;;;0.50;;
85757;SDS011;76202;52.626;4.746;2024-02-26T11:55:46;4.45;;;0.82;;
85757;SDS011;76202;52.626;4.746;2024-02-26T11:58:11;6.78;;;0.93;;
85757;SDS011;76202;52.626;4.746;2024-02-26T12:00:37;2.83;;;0.65;;
85757;SDS011;76202;52.626;4.746;2024-02-26T12:03:05;7.15;;;0.70;;
85757;SDS011;76202;52.626;4.746;2024-02-26T12:05:33;2.72;;;0.63;;
85757;SDS011;76202;52.626;4.746;2024-02-26T12:08:05;1.63;;;0.63;;
85757;SDS011;76202;52.626;4.746;2024-02-26T12:10:36;6.20;;;0.50;;
85757;SDS011;76202;52.626;4.746;2024-02-26T12:13:07;2.97;;;0.70;;
85757;SDS011;76202;52.626;4.746;2024-02-26T12:15:37;4.65;;;0.68;;
85757;SDS011;76202;52.626;4.746;2024-02-26T12:18:04;6.63;;;0.95;;
85757;SDS011;76202;52.626;4.746;2024-02-26T12:20:31;1.45;;;0.68;;
85757;SDS011;76202;52.626;4.746;2024-02-26T12:22:56;2.22;;;0.60;;
85757;SDS011;76202;52.626;4.746;2024-02-26T12:25:26;2.40;;;0.60;;
85757;SDS011;76202;52.626;4.746;2024-02-26T12:27:53;1.27;;;0.65;;
85757;SDS011;76202;52.626;4.746;2024-02-26T12:30:20;2.17;;;0.70;;
85757;SDS011;76202;52.626;4.746;2024-02-26T12:32:47;2.03;;;0.50;;
85757;SDS011;76202;52.626;4.746;2024-02-26T12:35:13;2.30;;;0.73;;
85757;SDS011;76202;52.626;4.746;2024-02-26T12:37:39;12.13;;;0.80;;
85757;SDS011;76202;52.626;4.746;2024-02-26T12:40:05;1.55;;;0.50;;
85757;SDS011;76202;52.626;4.746;2024-02-26T12:42:34;1.90;;;0.60;;
85757;SDS011;76202;52.626;4.746;2024-02-26T12:45:07;0.90;;;0.60;;
85757;SDS011;76202;52.626;4.746;2024-02-26T12:47:37;2.83;;;0.80;;
85757;SDS011;76202;52.626;4.746;2024-02-26T12:50:03;1.08;;;0.60;;
85757;SDS011;76202;52.626;4.746;2024-02-26T12:52:33;3.05;;;0.70;;
85757;SDS011;76202;52.626;4.746;2024-02-26T12:54:59;1.63;;;0.63;;
85757;SDS011;76202;52.626;4.746;2024-02-26T12:57:27;4.35;;;1.05;;
85757;SDS011;76202;52.626;4.746;2024-02-26T12:59:55;6.65;;;0.80;;
85757;SDS011;76202;52.626;4.746;2024-02-26T13:02:20;3.63;;;0.77;;
85757;SDS011;76202;52.626;4.746;2024-02-26T13:04:46;2.55;;;0.80;;
85757;SDS011;76202;52.626;4.746;2024-02-26T13:07:12;5.93;;;0.98;;
85757;SDS011;76202;52.626;4.746;2024-02-26T13:09:37;7.47;;;0.85;;
85757;SDS011;76202;52.626;4.746;2024-02-26T13:12:03;1.48;;;0.60;;
85757;SDS011;76202;52.626;4.746;2024-02-26T13:14:30;5.18;;;0.98;;
85757;SDS011;76202;52.626;4.746;2024-02-26T13:17:00;1.55;;;0.70;;
85757;SDS011;76202;52.626;4.746;2024-02-26T13:19:26;0.60;;;0.57;;
85757;SDS011;76202;52.626;4.746;2024-02-26T13:21:53;1.65;;;0.70;;
85757;SDS011;76202;52.626;4.746;2024-02-26T13:24:22;2.50;;;0.63;;
85757;SDS011;76202;52.626;4.746;2024-02-26T13:26:53;3.13;;;0.70;;
85757;SDS011;76202;52.626;4.746;2024-02-26T13:29:20;4.20;;;0.90;;
85757;SDS011;76202;52.626;4.746;2024-02-26T13:31:45;4.30;;;0.82;;
85757;SDS011;76202;52.626;4.746;2024-02-26T13:34:26;1.88;;;0.70;;
85757;SDS011;76202;52.626;4.746;2024-02-26T13:36:56;4.50;;;0.80;;
85757;SDS011;76202;52.626;4.746;2024-02-26T13:39:22;0.80;;;0.50;;
85757;SDS011;76202;52.626;4.746;2024-02-26T13:41:48;4.28;;;0.90;;
85757;SDS011;76202;52.626;4.746;2024-02-26T13:44:14;5.28;;;0.90;;
85757;SDS011;76202;52.626;4.746;2024-02-26T13:46:39;1.95;;;0.70;;
85757;SDS011;76202;52.626;4.746;2024-02-26T13:49:08;4.18;;;0.80;;
85757;SDS011;76202;52.626;4.746;2024-02-26T13:51:34;7.88;;;0.80;;
85757;SDS011;76202;52.626;4.746;2024-02-26T13:54:00;2.25;;;0.90;;
85757;SDS011;76202;52.626;4.746;2024-02-26T13:56:31;1.00;;;0.52;;
85757;SDS011;76202;52.626;4.746;2024-02-26T13:58:56;3.33;;;0.88;;
85757;SDS011;76202;52.626;4.746;2024-02-26T14:01:22;3.70;;;0.90;;
85757;SDS011;76202;52.626;4.746;2024-02-26T14:03:47;4.43;;;0.82;;
85757;SDS011;76202;52.626;4.746;2024-02-26T14:06:13;2.25;;;0.77;;
85757;SDS011;76202;52.626;4.746;2024-02-26T14:08:39;5.20;;;1.02;;
85757;SDS011;76202;52.626;4.746;2024-02-26T14:11:04;5.07;;;0.80;;
85757;SDS011;76202;52.626;4.746;2024-02-26T14:13:29;1.80;;;0.70;;
85757;SDS011;76202;52.626;4.746;2024-02-26T14:15:55;3.50;;;0.80;;
85757;SDS011;76202;52.626;4.746;2024-02-26T14:18:21;3.03;;;0.80;;
85757;SDS011;76202;52.626;4.746;2024-02-26T14:20:46;3.47;;;0.90;;
85757;SDS011;76202;52.626;4.746;2024-02-26T14:23:11;2.50;;;0.70;;
85757;SDS011;76202;52.626;4.746;2024-02-26T14:25:37;3.35;;;0.90;;
85757;SDS011;76202;52.626;4.746;2024-02-26T14:28:02;2.60;;;0.90;;
85757;SDS011;76202;52.626;4.746;2024-02-26T14:30:28;3.83;;;2.05;;
85757;SDS011;76202;52.626;4.746;2024-02-26T14:32:54;1.35;;;0.50;;
85757;SDS011;76202;52.626;4.746;2024-02-26T14:35:19;2.17;;;0.82;;
85757;SDS011;76202;52.626;4.746;2024-02-26T14:37:45;0.98;;;0.60;;
85757;SDS011;76202;52.626;4.746;2024-02-26T14:40:14;6.15;;;0.90;;
85757;SDS011;76202;52.626;4.746;2024-02-26T14:42:40;2.83;;;0.80;;
85757;SDS011;76202;52.626;4.746;2024-02-26T14:45:06;1.15;;;0.75;;